createdAt,value
2022-12-14T00:04:11.405Z,4.90
2022-12-14T00:09:13.077Z,5.70
2022-12-14T00:14:14.632Z,4.97
2022-12-14T00:19:16.216Z,4.80
2022-12-14T00:24:17.783Z,5.10
2022-12-14T00:29:19.386Z,5.68
2022-12-14T00:34:21.036Z,6.45
2022-12-14T00:39:22.671Z,5.88
2022-12-14T00:44:24.249Z,5.65
2022-12-14T00:49:25.944Z,5.20
2022-12-14T00:54:27.487Z,5.47
2022-12-14T00:59:29.123Z,6.05
2022-12-14T01:04:31.371Z,5.80
2022-12-14T01:09:33.000Z,6.30
2022-12-14T01:14:34.732Z,5.95
2022-12-14T01:19:36.298Z,6.10
2022-12-14T01:24:37.976Z,5.10
2022-12-14T01:29:39.570Z,6.88
2022-12-14T01:34:41.071Z,5.47
2022-12-14T01:39:42.602Z,6.35
2022-12-14T01:44:44.136Z,5.50
2022-12-14T01:50:04.928Z,5.82
2022-12-14T01:55:19.960Z,5.40
2022-12-14T02:00:21.957Z,5.07
2022-12-14T02:05:24.988Z,4.93
2022-12-14T02:10:29.842Z,4.30
2022-12-14T02:15:32.395Z,4.55
2022-12-14T02:21:06.053Z,4.55
2022-12-14T02:26:28.735Z,5.22
2022-12-14T02:31:55.228Z,5.03
2022-12-14T02:37:30.032Z,3.88
2022-12-14T02:42:48.210Z,3.75
2022-12-14T02:47:55.001Z,5.97
2022-12-14T02:53:15.023Z,4.75
2022-12-14T02:58:45.074Z,5.63
2022-12-14T03:03:46.776Z,4.97
2022-12-14T03:08:48.318Z,4.32
2022-12-14T03:14:03.241Z,4.90
2022-12-14T03:19:28.822Z,4.28
2022-12-14T03:24:38.951Z,3.80
2022-12-14T03:29:53.819Z,4.07
2022-12-14T03:35:01.745Z,4.43
2022-12-14T03:40:06.386Z,5.32
2022-12-14T03:45:21.584Z,4.28
2022-12-14T03:50:28.072Z,4.05
2022-12-14T03:56:07.150Z,4.00
2022-12-14T04:01:39.854Z,4.70
2022-12-14T04:06:55.295Z,4.18
2022-12-14T04:12:19.723Z,3.88
2022-12-14T04:17:27.099Z,4.22
2022-12-14T04:22:34.188Z,3.80
2022-12-14T04:27:48.099Z,4.22
2022-12-14T04:32:53.904Z,4.53
2022-12-14T04:38:03.612Z,2.77
2022-12-14T04:43:11.595Z,4.90
2022-12-14T04:48:23.261Z,3.60
2022-12-14T04:53:29.998Z,4.68
2022-12-14T04:58:32.764Z,4.03
2022-12-14T05:03:38.630Z,4.15
2022-12-14T05:08:59.010Z,4.13
2022-12-14T05:14:02.680Z,4.50
2022-12-14T05:19:08.896Z,4.32
2022-12-14T05:24:10.414Z,4.20
2022-12-14T05:29:12.515Z,4.63
2022-12-14T05:34:14.186Z,4.20
2022-12-14T05:39:16.424Z,4.53
2022-12-14T05:44:18.022Z,4.22
2022-12-14T05:49:19.660Z,4.13
2022-12-14T05:54:21.373Z,4.28
2022-12-14T05:59:22.943Z,3.53
2022-12-14T06:04:24.635Z,3.67
2022-12-14T06:09:26.238Z,3.70
2022-12-14T06:14:27.747Z,4.65
2022-12-14T06:19:29.388Z,4.75
2022-12-14T06:24:31.010Z,3.88
2022-12-14T06:29:32.482Z,3.50
2022-12-14T06:34:38.514Z,4.22
2022-12-14T06:39:40.846Z,4.18
2022-12-14T06:44:42.448Z,3.67
2022-12-14T06:49:43.952Z,5.00
2022-12-14T06:54:46.592Z,3.65
2022-12-14T06:59:48.143Z,4.30
2022-12-14T07:04:49.810Z,3.75
2022-12-14T07:09:51.489Z,4.43
2022-12-14T07:14:53.298Z,4.47
2022-12-14T07:19:55.031Z,4.35
2022-12-14T07:24:56.683Z,4.05
2022-12-14T07:29:58.237Z,3.92
2022-12-14T07:34:59.890Z,4.82
2022-12-14T07:40:01.490Z,4.80
2022-12-14T07:45:03.254Z,4.20
2022-12-14T07:50:05.128Z,5.57
2022-12-14T07:55:07.295Z,5.10
2022-12-14T08:00:09.676Z,4.97
2022-12-14T08:05:13.916Z,5.20
2022-12-14T08:10:15.514Z,5.35
2022-12-14T08:15:17.014Z,5.25
2022-12-14T08:20:18.891Z,5.63
2022-12-14T08:25:20.584Z,5.72
2022-12-14T08:30:22.061Z,4.60
2022-12-14T08:35:23.788Z,4.07
2022-12-14T08:40:25.890Z,5.45
2022-12-14T08:45:27.529Z,5.25
2022-12-14T08:50:29.443Z,5.28
2022-12-14T08:55:38.211Z,4.85
2022-12-14T09:00:40.411Z,5.57
2022-12-14T09:05:42.005Z,5.57
2022-12-14T09:10:49.611Z,4.93
2022-12-14T09:16:17.920Z,5.20
2022-12-14T09:21:19.810Z,5.72
2022-12-14T09:26:22.306Z,6.40
2022-12-14T09:31:26.787Z,5.22
2022-12-14T09:36:28.944Z,6.15
2022-12-14T09:41:36.176Z,7.53
2022-12-14T09:46:54.089Z,6.15
2022-12-14T09:51:59.295Z,6.20
2022-12-14T09:57:34.956Z,6.63
2022-12-14T10:03:06.654Z,6.53
2022-12-14T10:08:08.791Z,6.53
2022-12-14T10:13:16.544Z,7.03
2022-12-14T10:18:58.181Z,7.30
2022-12-14T10:24:00.854Z,6.57
2022-12-14T10:29:07.519Z,6.88
2022-12-14T10:39:34.139Z,7.78
2022-12-14T10:44:53.483Z,7.28
2022-12-14T10:50:20.286Z,6.72
2022-12-14T10:55:32.191Z,7.43
2022-12-14T11:00:33.749Z,7.65
2022-12-14T11:05:59.839Z,7.68
2022-12-14T11:11:18.605Z,8.63
2022-12-14T11:16:26.687Z,7.32
2022-12-14T11:21:38.255Z,6.93
2022-12-14T11:26:42.769Z,7.47
2022-12-14T11:31:49.765Z,7.72
2022-12-14T11:36:51.469Z,7.40
2022-12-14T11:41:59.212Z,8.00
2022-12-14T11:47:00.777Z,9.02
2022-12-14T11:52:05.301Z,8.02
2022-12-14T11:57:12.556Z,7.55
2022-12-14T12:02:35.124Z,8.32
2022-12-14T12:07:40.265Z,7.35
2022-12-14T12:12:54.346Z,8.70
2022-12-14T12:18:03.234Z,8.90
2022-12-14T12:23:23.012Z,7.90
2022-12-14T12:28:29.818Z,8.18
2022-12-14T12:33:34.914Z,8.57
2022-12-14T12:38:42.584Z,7.70
2022-12-14T12:43:57.855Z,7.85
2022-12-14T12:49:10.846Z,8.88
2022-12-14T12:54:21.457Z,8.43
2022-12-14T12:59:33.631Z,8.02
2022-12-14T13:04:39.174Z,8.35
2022-12-14T13:09:46.102Z,9.50
2022-12-14T13:14:50.412Z,9.57
2022-12-14T13:19:54.875Z,9.55
2022-12-14T13:25:13.061Z,12.73
2022-12-14T13:30:17.721Z,9.13
2022-12-14T13:35:37.562Z,9.25
2022-12-14T13:41:02.053Z,8.60
2022-12-14T13:46:24.052Z,7.72
2022-12-14T13:51:34.121Z,8.05
2022-12-14T13:56:38.943Z,9.75
2022-12-14T14:01:40.536Z,8.10
2022-12-14T14:06:50.380Z,9.13
2022-12-14T14:12:01.143Z,8.70
2022-12-14T14:17:25.379Z,9.35
2022-12-14T14:22:30.410Z,7.88
2022-12-14T14:27:39.593Z,8.02
2022-12-14T14:32:42.660Z,7.57
2022-12-14T14:37:54.711Z,8.88
2022-12-14T14:43:03.822Z,7.78
2022-12-14T14:48:32.427Z,7.10
2022-12-14T14:53:37.733Z,9.50
2022-12-14T14:58:41.390Z,7.72
2022-12-14T15:04:01.147Z,8.00
2022-12-14T15:09:12.664Z,8.10
2022-12-14T15:14:37.256Z,9.10
2022-12-14T15:19:39.139Z,9.48
2022-12-14T15:24:43.205Z,10.63
2022-12-14T15:29:49.366Z,8.65
2022-12-14T15:34:59.842Z,9.52
2022-12-14T15:40:11.962Z,8.90
2022-12-14T15:45:16.355Z,9.20
2022-12-14T15:50:30.397Z,12.85
2022-12-14T15:55:41.542Z,10.48
2022-12-14T16:00:47.310Z,11.52
2022-12-14T16:05:49.301Z,13.10
2022-12-14T16:10:55.025Z,12.60
2022-12-14T16:15:58.203Z,10.73
2022-12-14T16:21:02.763Z,9.45
2022-12-14T16:26:25.651Z,9.75
2022-12-14T16:31:27.465Z,11.82
2022-12-14T16:36:32.107Z,12.18
2022-12-14T16:41:38.854Z,10.18
2022-12-14T16:46:42.921Z,10.63
2022-12-14T16:52:06.222Z,8.88
2022-12-14T16:57:17.036Z,10.07
2022-12-14T17:02:25.482Z,18.63
2022-12-14T17:07:30.752Z,22.75
2022-12-14T17:12:32.286Z,14.02
2022-12-14T17:17:36.152Z,12.18
2022-12-14T17:22:37.798Z,11.93
2022-12-14T17:27:40.418Z,15.18
2022-12-14T17:32:43.086Z,13.32
2022-12-14T17:37:44.661Z,12.63
2022-12-14T17:42:52.509Z,13.18
2022-12-14T17:47:55.126Z,13.60
2022-12-14T17:52:57.809Z,12.45
2022-12-14T17:57:59.629Z,11.80
2022-12-14T18:03:03.385Z,13.38
2022-12-14T18:08:05.309Z,14.68
2022-12-14T18:13:07.030Z,16.02
2022-12-14T18:18:08.785Z,12.85
2022-12-14T18:23:15.247Z,12.63
2022-12-14T18:33:23.188Z,10.95
2022-12-14T18:38:25.445Z,13.93
2022-12-14T18:43:28.284Z,14.48
2022-12-14T19:08:00.460Z,13.07
2022-12-14T19:13:02.231Z,16.75
2022-12-14T19:18:03.793Z,14.55
2022-12-14T19:23:05.465Z,21.45
2022-12-14T19:33:29.262Z,23.38
2022-12-14T19:38:31.116Z,19.42
2022-12-14T19:43:33.603Z,20.52
2022-12-14T19:48:35.752Z,21.17
2022-12-14T19:53:38.585Z,16.95
2022-12-14T19:58:40.531Z,18.75
2022-12-14T20:03:42.661Z,18.08
2022-12-14T20:08:44.362Z,21.02
2022-12-14T20:13:57.230Z,21.15
2022-12-14T20:19:00.617Z,21.23
2022-12-14T20:24:02.319Z,21.08
2022-12-14T20:29:05.021Z,18.90
2022-12-14T20:34:06.690Z,17.33
2022-12-14T20:39:08.486Z,16.83
2022-12-14T20:44:10.809Z,18.60
2022-12-14T20:49:20.229Z,18.17
2022-12-14T20:54:21.747Z,17.77
2022-12-14T20:59:23.381Z,21.40
2022-12-14T21:04:25.121Z,19.33
2022-12-14T21:09:26.644Z,31.45
2022-12-14T21:14:34.440Z,36.75
2022-12-14T21:19:36.408Z,43.50
2022-12-14T21:25:01.651Z,24.50
2022-12-14T21:29:59.795Z,23.85
2022-12-14T21:35:01.269Z,23.27
2022-12-14T21:40:03.138Z,25.02
2022-12-14T21:45:04.975Z,24.52
2022-12-14T21:50:07.216Z,26.35
2022-12-14T21:55:08.888Z,26.55
2022-12-14T22:00:10.902Z,24.88
2022-12-14T22:05:15.272Z,24.83
2022-12-14T22:10:22.882Z,24.13
2022-12-14T22:15:26.286Z,22.35
2022-12-14T22:20:27.787Z,25.33
2022-12-14T22:25:29.472Z,25.70
2022-12-14T22:30:32.035Z,26.52
2022-12-14T22:35:33.978Z,26.27
2022-12-14T22:40:35.558Z,20.60
2022-12-14T22:45:37.117Z,18.70
2022-12-14T22:50:38.667Z,19.52
2022-12-14T22:55:41.190Z,19.67
2022-12-14T23:00:43.205Z,18.52
2022-12-14T23:05:45.408Z,19.17
2022-12-14T23:10:47.248Z,17.20
2022-12-14T23:15:51.661Z,18.35
2022-12-14T23:20:53.653Z,16.98
2022-12-14T23:25:55.335Z,16.88
2022-12-14T23:30:57.971Z,15.75
2022-12-14T23:36:01.361Z,14.80
2022-12-14T23:41:02.888Z,15.82
2022-12-14T23:46:05.714Z,15.95
2022-12-14T23:51:07.283Z,17.00
2022-12-14T23:56:08.788Z,15.48
